CheckWX is a tool to help pilots better visualize weather data.  It is not intended as a substitute for an official pre-flight weather briefing.

18:38:13 UTC

VTSS METAR
Hat Yai International Airport
Hat Yai, Thailand
Current

38 mins ago

VTSS 261800Z 00000KT 9999 FEW020 23/22 Q1010 NOSIG
Observed
Jan-26 @ 18:00 UTC
Visibility
10,000+ meters
Flight Rules
VFR
Cloud Levels
  • Few at 2,000' AGL
Temperature
23°C / 73°F
Dewpoint
22°C / 72°F
Humidity
94%
Altimeter
29.82" Hg
Pressure
1009.92 hPa
Previous

1 hour ago

VTSS 261730Z 00000KT 9999 FEW020 24/23 Q1011 NOSIG
Observed
Jan-26 @ 17:30 UTC
Visibility
10,000+ meters
Flight Rules
VFR
Cloud Levels
  • Few at 2,000' AGL
Temperature
24°C / 75°F
Dewpoint
23°C / 73°F
Humidity
94%
Altimeter
29.85" Hg
Pressure
1010.92 hPa
Previous

2 hours ago

VTSS 261700Z 00000KT 9999 FEW020 24/23 Q1011 NOSIG
Observed
Jan-26 @ 17:00 UTC
Visibility
10,000+ meters
Flight Rules
VFR
Cloud Levels
  • Few at 2,000' AGL
Temperature
24°C / 75°F
Dewpoint
23°C / 73°F
Humidity
94%
Altimeter
29.85" Hg
Pressure
1010.92 hPa